Time;durP1;ratioP1;P1;durP2;ratioP2;P2;SDS_P1;SDS_P2;PMS_P1;PMS_P2;Temp;Humidity;BMP_temperature;BMP_pressure;BME280_temperature;BME280_humidity;BME280_pressure;Samples;Min_cycle;Max_cycle;Signal;HPM_P1;HPM_P2
2021/06/14 05:31:33;;;;;;;8.63;3.45;;;23.50;48.80;;;;;;5099168;27;20463;-76
2021/06/14 05:33:58;;;;;;;9.25;3.78;;;24.00;46.20;;;;;;5051851;28;20040;-76
2021/06/14 05:36:24;;;;;;;9.10;3.97;;;24.60;44.40;;;;;;5064312;28;20082;-76
2021/06/14 05:38:50;;;;;;;7.55;3.45;;;25.20;43.20;;;;;;5065493;28;20881;-76
2021/06/14 05:41:15;;;;;;;8.00;3.72;;;24.80;41.50;;;;;;5077522;28;20357;-76
2021/06/14 05:43:41;;;;;;;10.38;4.45;;;25.10;42.60;;;;;;5065540;28;20032;-76
2021/06/14 05:46:07;;;;;;;8.10;3.65;;;24.80;42.20;;;;;;5078366;28;20032;-76
2021/06/14 05:48:32;;;;;;;6.90;3.90;;;25.20;42.40;;;;;;5063394;28;20384;-76
2021/06/14 05:50:58;;;;;;;6.93;3.55;;;25.90;41.10;;;;;;5065204;28;20672;-78
2021/06/14 05:53:24;;;;;;;6.53;3.15;;;26.00;40.40;;;;;;5067756;28;20493;-78
2021/06/14 05:55:50;;;;;;;8.27;3.72;;;25.30;42.50;;;;;;5064442;28;20020;-77
2021/06/14 05:58:16;;;;;;;6.05;3.50;;;25.00;42.20;;;;;;5082357;28;20440;-76
2021/06/14 06:00:42;;;;;;;8.80;3.83;;;25.60;41.90;;;;;;5080128;28;20020;-76
2021/06/14 06:03:07;;;;;;;5.45;3.55;;;25.70;42.00;;;;;;5080101;28;20047;-77
2021/06/14 06:05:33;;;;;;;9.80;3.90;;;25.90;40.70;;;;;;5067936;28;20584;-76
2021/06/14 06:07:59;;;;;;;6.85;3.28;;;26.10;41.40;;;;;;5082917;28;20036;-76
2021/06/14 06:10:24;;;;;;;7.55;3.53;;;26.40;40.40;;;;;;5065829;28;20406;-77
2021/06/14 06:12:50;;;;;;;7.70;3.92;;;26.20;41.70;;;;;;5070776;28;20032;-76
2021/06/14 06:15:17;;;;;;;8.88;3.47;;;26.70;39.60;;;;;;5063018;28;20028;-77
2021/06/14 06:17:45;;;;;;;9.07;4.10;;;26.30;41.10;;;;;;5082607;28;20024;-77
2021/06/14 06:20:12;;;;;;;6.88;3.92;;;26.40;40.50;;;;;;5071014;28;20082;-77
2021/06/14 06:22:38;;;;;;;10.32;3.95;;;26.20;42.90;;;;;;5068017;28;20047;-77
2021/06/14 06:25:08;;;;;;;4.78;3.33;;;26.70;42.30;;;;;;5080395;28;20357;-79
2021/06/14 06:27:34;;;;;;;12.10;4.10;;;27.00;41.70;;;;;;5058347;28;20069;-82
2021/06/14 06:30:00;;;;;;;9.95;4.10;;;26.40;40.40;;;;;;5065442;28;20020;-82
2021/06/14 06:32:26;;;;;;;10.13;3.72;;;26.40;41.90;;;;;;5066410;28;20040;-83
2021/06/14 06:34:52;;;;;;;8.27;3.50;;;26.10;40.40;;;;;;5068652;28;20092;-83
2021/06/14 06:37:18;;;;;;;10.63;3.83;;;26.60;43.30;;;;;;5040399;28;20028;-83
2021/06/14 06:39:43;;;;;;;10.07;3.70;;;26.80;40.00;;;;;;5053857;28;20032;-83
2021/06/14 06:42:09;;;;;;;7.10;2.90;;;27.10;41.40;;;;;;5044993;28;20035;-83
2021/06/14 06:44:36;;;;;;;7.57;3.30;;;27.00;41.90;;;;;;5051554;28;20091;-83
2021/06/14 06:47:04;;;;;;;8.93;3.15;;;26.60;40.30;;;;;;5045567;28;20028;-83
2021/06/14 06:49:30;;;;;;;6.07;3.20;;;26.70;43.20;;;;;;5038928;28;20029;-83
2021/06/14 06:51:55;;;;;;;14.57;3.90;;;27.20;41.40;;;;;;5042012;28;20020;-83
2021/06/14 06:54:22;;;;;;;6.65;3.58;;;27.30;41.20;;;;;;5067928;28;20017;-82
2021/06/14 06:56:49;;;;;;;6.78;3.25;;;26.90;38.50;;;;;;5052631;28;20198;-78
2021/06/14 06:59:15;;;;;;;8.50;2.92;;;26.20;40.30;;;;;;5068719;28;20382;-83
2021/06/14 07:01:44;;;;;;;8.43;3.10;;;26.80;42.50;;;;;;5057749;28;20032;-83
2021/06/14 07:04:09;;;;;;;7.28;3.15;;;27.10;39.80;;;;;;5050390;28;20013;-82
2021/06/14 07:06:35;;;;;;;8.57;3.47;;;26.80;39.10;;;;;;5054016;28;20073;-83
2021/06/14 07:09:01;;;;;;;7.90;3.50;;;27.50;40.90;;;;;;5027403;28;20599;-83
2021/06/14 07:11:27;;;;;;;7.63;3.13;;;27.80;38.90;;;;;;5055532;28;20142;-83
2021/06/14 07:13:53;;;;;;;6.65;3.25;;;27.30;39.70;;;;;;5070723;28;20023;-82
2021/06/14 07:16:19;;;;;;;6.43;3.42;;;26.40;41.30;;;;;;5052932;28;20639;-83
2021/06/14 07:18:44;;;;;;;6.78;3.10;;;26.60;40.50;;;;;;5053426;28;20496;-82
2021/06/14 07:21:11;;;;;;;6.35;3.20;;;26.80;40.50;;;;;;5050544;28;20036;-81
2021/06/14 07:23:37;;;;;;;5.50;2.83;;;26.50;38.30;;;;;;5052958;28;20028;-82
2021/06/14 07:26:03;;;;;;;9.07;3.15;;;26.40;40.10;;;;;;5070124;28;20032;-82
2021/06/14 07:28:29;;;;;;;10.38;2.88;;;26.70;41.10;;;;;;5054441;28;20609;-82
2021/06/14 07:30:57;;;;;;;9.57;3.05;;;27.30;39.60;;;;;;5066998;28;20052;-83
2021/06/14 07:33:22;;;;;;;5.63;3.30;;;27.70;41.40;;;;;;5052335;28;20025;-82
2021/06/14 07:35:48;;;;;;;7.97;3.33;;;27.10;39.20;;;;;;5065940;28;20465;-82
2021/06/14 07:38:15;;;;;;;6.93;3.47;;;26.80;39.10;;;;;;5053294;28;20021;-81
2021/06/14 07:40:41;;;;;;;10.48;3.33;;;26.70;43.90;;;;;;5055732;28;20977;-81
2021/06/14 07:43:11;;;;;;;6.63;3.28;;;27.20;39.70;;;;;;5050286;28;20031;-82
2021/06/14 07:45:37;;;;;;;4.53;3.13;;;27.60;40.10;;;;;;5051591;28;20033;-82
2021/06/14 07:48:03;;;;;;;7.10;3.40;;;26.90;40.40;;;;;;5051933;28;20032;-82
2021/06/14 07:50:28;;;;;;;7.82;2.80;;;26.50;42.00;;;;;;5038383;28;20048;-82
2021/06/14 07:52:54;;;;;;;5.78;3.10;;;26.40;41.50;;;;;;5055180;28;20458;-82
2021/06/14 07:55:20;;;;;;;7.80;2.95;;;26.50;42.50;;;;;;5072667;28;20369;-84
2021/06/14 07:57:45;;;;;;;6.82;3.03;;;26.90;39.90;;;;;;5063521;28;20028;-82
2021/06/14 08:00:12;;;;;;;6.75;2.92;;;27.20;39.50;;;;;;5051480;28;20024;-78
2021/06/14 08:02:40;;;;;;;7.25;3.55;;;27.10;41.80;;;;;;5067711;28;20040;-80
2021/06/14 08:05:06;;;;;;;5.78;3.25;;;27.10;41.20;;;;;;5053420;28;20017;-81
2021/06/14 08:07:33;;;;;;;7.45;3.28;;;26.20;41.20;;;;;;5056574;28;20060;-81
2021/06/14 08:10:03;;;;;;;9.85;3.20;;;26.70;40.80;;;;;;5070185;28;20020;-82
2021/06/14 08:12:33;;;;;;;8.57;3.33;;;27.00;41.30;;;;;;5067852;28;20029;-81
2021/06/14 08:15:00;;;;;;;7.88;3.63;;;26.50;41.00;;;;;;5054637;28;20023;-81
2021/06/14 08:17:29;;;;;;;7.05;3.10;;;26.80;42.70;;;;;;5053547;28;20170;-81
2021/06/14 08:20:04;;;;;;;5.13;2.92;;;27.10;40.20;;;;;;5068392;28;20132;-81
2021/06/14 08:27:35;;;;;;;5.07;3.17;;;26.50;41.50;;;;;;5047474;28;20976;-81
2021/06/14 08:30:03;;;;;;;6.15;3.35;;;26.30;45.70;;;;;;5050753;28;20039;-82
2021/06/14 08:32:28;;;;;;;8.05;3.70;;;26.40;42.50;;;;;;5049176;28;20028;-76
2021/06/14 08:34:54;;;;;;;9.05;3.50;;;26.40;42.10;;;;;;5046476;28;20702;-75
2021/06/14 08:37:20;;;;;;;5.97;3.25;;;26.50;41.80;;;;;;5052317;28;20035;-75
2021/06/14 08:39:45;;;;;;;13.77;3.78;;;26.70;40.10;;;;;;5047726;28;20057;-76
2021/06/14 08:42:11;;;;;;;8.90;3.58;;;27.00;41.00;;;;;;5047777;28;20527;-76
2021/06/14 08:44:37;;;;;;;6.40;3.63;;;26.60;40.90;;;;;;5049264;28;20032;-76
2021/06/14 08:47:03;;;;;;;8.52;3.40;;;26.90;43.50;;;;;;5050144;28;20024;-75
2021/06/14 08:49:29;;;;;;;13.93;3.67;;;26.80;40.40;;;;;;5048664;28;20020;-75
2021/06/14 08:51:54;;;;;;;8.50;3.13;;;26.50;41.40;;;;;;5048910;28;20025;-75
2021/06/14 08:54:20;;;;;;;10.95;3.65;;;26.40;40.00;;;;;;5047418;28;20024;-75
2021/06/14 08:56:46;;;;;;;9.73;3.47;;;26.40;41.60;;;;;;5033803;28;20031;-76
2021/06/14 08:59:12;;;;;;;9.85;3.20;;;26.70;40.60;;;;;;5046310;28;20021;-76
2021/06/14 09:01:37;;;;;;;9.95;3.40;;;26.90;41.10;;;;;;5051914;28;20052;-75
2021/06/14 09:04:03;;;;;;;9.05;3.55;;;27.20;41.10;;;;;;5047525;28;20032;-76
2021/06/14 09:06:29;;;;;;;6.82;3.40;;;27.20;40.40;;;;;;5066501;28;20190;-76
2021/06/14 09:08:59;;;;;;;10.43;3.22;;;26.70;40.40;;;;;;5046530;28;20598;-75
2021/06/14 09:11:25;;;;;;;7.60;3.20;;;27.00;40.00;;;;;;5047594;28;20696;-75
2021/06/14 09:13:51;;;;;;;9.05;3.72;;;27.00;40.80;;;;;;5048563;28;20059;-75
2021/06/14 09:16:16;;;;;;;10.23;3.35;;;27.20;40.30;;;;;;5049948;28;20060;-80
2021/06/14 09:18:43;;;;;;;7.43;3.67;;;27.40;40.30;;;;;;5047191;28;20522;-79
2021/06/14 09:21:10;;;;;;;11.52;3.75;;;27.30;43.80;;;;;;5036748;28;20132;-80
2021/06/14 09:23:55;;;;;;;9.82;3.60;;;27.20;39.90;;;;;;5036456;28;20674;-80
2021/06/14 15:43:57;;;;;;;7.55;3.33;;;25.80;51.40;;;;;;5111133;28;20035;-60
2021/06/14 15:46:23;;;;;;;11.20;2.90;;;25.70;52.00;;;;;;5093094;28;20039;-59
2021/06/14 15:52:10;;;;;;;5.13;3.10;;;25.60;52.60;;;;;;5111293;28;20035;-59
2021/06/14 15:57:58;;;;;;;8.63;2.83;;;25.50;53.20;;;;;;5110842;28;20425;-59
2021/06/14 16:03:46;;;;;;;6.25;2.88;;;25.50;53.60;;;;;;5110555;28;20433;-59
2021/06/14 16:06:12;;;;;;;6.15;2.85;;;25.50;53.70;;;;;;5109718;28;20055;-58
2021/06/14 16:12:00;;;;;;;9.70;3.00;;;25.50;54.00;;;;;;5110524;28;20109;-61
2021/06/14 16:17:47;;;;;;;4.70;2.40;;;25.50;54.40;;;;;;5098533;28;20066;-60
2021/06/14 16:20:17;;;;;;;7.82;2.92;;;25.50;54.50;;;;;;5086042;28;20059;-59
2021/06/14 16:26:04;;;;;;;9.00;2.75;;;25.50;54.70;;;;;;5087543;28;20035;-58
2021/06/14 16:28:30;;;;;;;5.90;2.80;;;25.50;54.90;;;;;;5087105;28;20024;-57
2021/06/14 16:37:40;;;;;;;6.97;3.13;;;25.70;55.20;;;;;;5087316;28;20425;-62
2021/06/14 16:48:00;;;;;;;6.80;2.88;;;25.70;55.50;;;;;;5048037;28;20035;-60
2021/06/14 16:50:27;;;;;;;7.78;2.85;;;25.70;55.50;;;;;;5062961;28;20080;-60
2021/06/14 16:52:53;;;;;;;6.22;3.08;;;25.70;55.70;;;;;;5049805;28;20373;-60
2021/06/14 16:55:19;;;;;;;6.32;2.78;;;25.60;55.70;;;;;;5048506;28;20035;-59
2021/06/14 16:57:45;;;;;;;8.35;3.53;;;25.60;55.70;;;;;;5066225;28;20020;-59
2021/06/14 17:00:12;;;;;;;12.05;2.80;;;25.60;55.80;;;;;;5061984;28;20040;-60
2021/06/14 17:06:00;;;;;;;6.70;3.00;;;25.60;55.90;;;;;;5067753;28;20112;-59
2021/06/14 17:08:26;;;;;;;9.25;2.63;;;25.60;56.10;;;;;;5048203;28;20425;-60
2021/06/14 17:10:52;;;;;;;11.93;2.83;;;25.60;56.30;;;;;;5048884;28;20104;-60
2021/06/14 17:16:40;;;;;;;6.95;2.50;;;25.70;56.50;;;;;;5070071;28;20023;-61
2021/06/14 17:22:29;;;;;;;10.02;3.05;;;25.60;56.60;;;;;;5069924;28;20031;-61
2021/06/14 17:24:55;;;;;;;5.90;2.65;;;25.60;56.60;;;;;;5051929;28;20435;-59
2021/06/14 17:34:05;;;;;;;8.88;3.05;;;25.60;56.80;;;;;;5068806;28;20040;-63
2021/06/14 17:36:31;;;;;;;9.73;3.13;;;25.60;56.80;;;;;;5051982;28;20024;-61
2021/06/14 17:38:56;;;;;;;5.68;2.45;;;25.60;56.90;;;;;;5063582;28;20116;-61
2021/06/14 17:41:23;;;;;;;5.65;2.83;;;25.60;57.10;;;;;;5051298;28;20112;-61
2021/06/14 17:44:00;;;;;;;5.40;2.78;;;25.70;57.00;;;;;;5020564;28;20583;-61
2021/06/14 17:46:25;;;;;;;8.48;3.20;;;25.60;56.80;;;;;;5057717;28;20043;-62
2021/06/14 17:48:51;;;;;;;4.35;2.13;;;25.60;57.20;;;;;;5053014;28;20028;-61
2021/06/14 17:51:17;;;;;;;5.32;2.75;;;25.60;57.10;;;;;;5044518;28;20021;-61
2021/06/14 17:53:43;;;;;;;4.82;2.63;;;25.70;57.10;;;;;;5040772;28;20029;-61
2021/06/14 17:56:09;;;;;;;5.00;2.50;;;25.60;57.30;;;;;;5052496;28;20020;-61
2021/06/14 17:58:34;;;;;;;7.07;2.47;;;25.60;57.10;;;;;;5035544;28;20030;-59
2021/06/14 18:04:22;;;;;;;6.47;2.72;;;25.60;57.40;;;;;;5036251;28;20060;-60
2021/06/14 18:06:48;;;;;;;7.03;2.88;;;25.70;57.40;;;;;;5036087;28;20470;-61
2021/06/14 18:09:13;;;;;;;4.38;2.55;;;25.70;57.40;;;;;;5042374;28;20032;-60
2021/06/14 18:11:40;;;;;;;3.58;2.20;;;25.60;57.60;;;;;;5037868;28;20035;-60
2021/06/14 18:27:34;;;;;;;3.65;2.28;;;25.60;57.70;;;;;;5036778;28;20124;-60
2021/06/14 18:33:25;;;;;;;9.13;2.67;;;25.60;57.60;;;;;;5047211;28;20564;-60
2021/06/14 18:35:55;;;;;;;5.93;2.33;;;25.60;57.60;;;;;;5033565;28;20025;-59
2021/06/14 18:38:23;;;;;;;19.48;3.95;;;25.60;58.00;;;;;;5050063;28;20397;-58
2021/06/14 18:40:53;;;;;;;11.40;3.38;;;25.60;55.40;;;;;;5057913;28;20016;-58
2021/06/14 18:43:19;;;;;;;22.88;4.68;;;25.60;57.40;;;;;;5074209;28;20067;-61
2021/06/14 18:45:45;;;;;;;10.88;3.60;;;25.70;57.70;;;;;;5055184;28;20541;-60
2021/06/14 18:48:10;;;;;;;16.02;4.45;;;25.80;57.30;;;;;;5053469;28;20100;-60
2021/06/14 18:50:36;;;;;;;18.52;4.13;;;25.80;57.30;;;;;;5036610;28;20028;-60
2021/06/14 18:53:03;;;;;;;15.93;4.63;;;25.70;57.20;;;;;;5051040;28;20029;-60
2021/06/14 18:55:30;;;;;;;15.75;4.82;;;25.70;56.50;;;;;;5017939;28;20037;-61
2021/06/14 18:57:56;;;;;;;19.35;4.25;;;25.60;57.10;;;;;;5020316;28;20068;-61
2021/06/14 19:00:21;;;;;;;20.33;4.57;;;25.60;57.10;;;;;;5011114;28;20116;-61
2021/06/14 19:02:48;;;;;;;16.05;4.10;;;25.60;57.10;;;;;;5013200;28;20029;-61
2021/06/14 19:05:16;;;;;;;14.77;4.45;;;25.50;57.10;;;;;;5042677;28;20116;-60
2021/06/14 19:07:43;;;;;;;10.55;3.88;;;25.50;57.10;;;;;;5034051;28;20532;-61
2021/06/14 19:10:09;;;;;;;13.15;4.15;;;25.50;56.80;;;;;;5022228;28;20038;-60
2021/06/14 19:12:35;;;;;;;13.90;4.10;;;25.40;56.80;;;;;;5036715;28;20022;-61
2021/06/14 19:15:42;;;;;;;9.82;3.88;;;25.40;56.90;;;;;;5032964;28;20031;-61
2021/06/14 19:21:30;;;;;;;14.65;4.05;;;25.40;56.90;;;;;;5054399;28;20036;-60
2021/06/14 19:27:17;;;;;;;12.80;3.75;;;25.40;57.00;;;;;;5053901;28;20024;-60
2021/06/14 19:29:44;;;;;;;11.27;4.22;;;25.30;56.90;;;;;;5036319;28;20020;-61
2021/06/14 19:32:15;;;;;;;11.77;4.10;;;25.30;56.80;;;;;;5052692;28;20412;-60
2021/06/14 19:34:43;;;;;;;10.63;3.42;;;25.30;56.90;;;;;;5035231;28;20358;-60
2021/06/14 19:37:17;;;;;;;9.93;3.83;;;25.30;57.70;;;;;;5038920;28;20032;-60
2021/06/14 19:39:44;;;;;;;9.50;4.13;;;25.30;57.20;;;;;;5041901;28;20033;-60
2021/06/14 19:42:13;;;;;;;10.48;3.53;;;25.40;57.50;;;;;;5027411;28;20026;-59
2021/06/14 19:44:39;;;;;;;11.73;3.92;;;25.30;57.70;;;;;;5044837;28;20519;-61
2021/06/14 19:47:05;;;;;;;8.68;3.22;;;25.30;57.60;;;;;;5031997;28;20029;-65
2021/06/14 19:49:36;;;;;;;7.45;3.60;;;25.40;57.80;;;;;;5034973;28;20026;-62
2021/06/14 19:52:08;;;;;;;9.15;3.60;;;25.30;57.90;;;;;;5034844;28;20048;-62
2021/06/14 19:57:57;;;;;;;12.23;4.07;;;25.30;58.30;;;;;;5033945;28;20406;-58
2021/06/14 20:03:45;;;;;;;6.45;3.83;;;25.30;58.50;;;;;;5045711;28;20104;-61
2021/06/14 20:09:48;;;;;;;9.05;3.90;;;25.30;58.70;;;;;;5044169;28;20056;-64
2021/06/14 20:15:36;;;;;;;14.20;3.83;;;25.30;59.10;;;;;;5033664;28;20533;-60
2021/06/14 20:21:36;;;;;;;12.77;3.95;;;25.40;59.40;;;;;;5033531;28;20043;-58
2021/06/14 20:27:25;;;;;;;14.27;3.80;;;25.40;59.70;;;;;;5033486;28;20040;-57
2021/06/14 20:33:13;;;;;;;14.52;4.22;;;25.40;60.50;;;;;;5032659;28;20032;-58
2021/06/14 20:35:38;;;;;;;13.27;3.78;;;25.50;61.20;;;;;;5031531;28;20462;-61
2021/06/14 20:41:26;;;;;;;11.02;4.18;;;25.50;62.80;;;;;;5033705;28;20057;-60
